Time;durP1;ratioP1;P1;durP2;ratioP2;P2;SDS_P1;SDS_P2;PMS_P1;PMS_P2;Temp;Humidity;BMP_temperature;BMP_pressure;BME280_temperature;BME280_humidity;BME280_pressure;Samples;Min_cycle;Max_cycle;Signal;HPM_P1;HPM_P2
2023/09/30 00:00:09;;;;;;;15.55;7.80;;;17.50;99.90;;;17.87;83.45;102356.47;5001070;28;20035;-67
2023/09/30 00:02:37;;;;;;;18.70;7.38;;;17.40;99.90;;;17.82;84.07;102354.75;5009023;28;20041;-67
2023/09/30 00:05:08;;;;;;;11.45;7.30;;;17.40;99.90;;;17.78;84.05;102355.69;4996940;28;20045;-67
2023/09/30 00:07:36;;;;;;;10.48;6.95;;;17.30;99.90;;;17.72;84.49;102355.75;5012756;28;20559;-67
2023/09/30 00:10:08;;;;;;;10.45;6.60;;;17.20;99.90;;;17.51;84.73;102316.72;5000129;28;20558;-67
2023/09/30 00:12:36;;;;;;;13.82;7.25;;;17.20;99.90;;;17.57;84.95;102351.44;5008963;28;20046;-67
2023/09/30 00:15:06;;;;;;;12.98;6.85;;;17.10;99.90;;;17.59;85.20;102359.44;4999598;28;20037;-67
2023/09/30 00:17:35;;;;;;;12.40;7.05;;;17.10;99.90;;;17.64;85.54;102362.94;5006936;28;20053;-66
2023/09/30 00:20:04;;;;;;;14.07;6.95;;;17.10;99.90;;;17.57;86.20;102350.53;5009933;28;20077;-66
2023/09/30 00:22:32;;;;;;;13.93;6.82;;;17.00;99.90;;;17.58;86.38;102349.63;5000360;28;20482;-67
2023/09/30 00:25:01;;;;;;;14.07;6.90;;;17.00;99.90;;;17.62;86.50;102356.72;5010506;28;20129;-66
2023/09/30 00:27:30;;;;;;;13.60;7.10;;;17.10;99.90;;;17.62;86.64;102364.75;5005001;28;20069;-67
2023/09/30 00:29:59;;;;;;;11.40;7.27;;;17.10;99.90;;;17.66;86.93;102356.69;5001496;28;20081;-67
2023/09/30 00:32:27;;;;;;;13.02;7.80;;;17.20;99.90;;;17.71;86.88;102370.03;5011429;28;20758;-67
2023/09/30 00:34:55;;;;;;;14.45;6.82;;;17.20;99.90;;;17.70;87.07;102363.78;5017103;28;20087;-67
2023/09/30 00:37:24;;;;;;;13.50;7.03;;;17.20;99.90;;;17.78;87.11;102367.28;5005809;28;20058;-67
2023/09/30 00:39:52;;;;;;;15.63;7.03;;;17.30;99.90;;;17.78;87.03;102369.97;5010834;28;20050;-67
2023/09/30 00:42:20;;;;;;;15.05;6.95;;;17.30;99.90;;;17.88;87.13;102384.16;5014115;28;20500;-67
2023/09/30 00:44:50;;;;;;;12.65;6.93;;;17.40;99.90;;;17.93;86.71;102376.94;5008754;28;20065;-67
2023/09/30 00:47:21;;;;;;;14.02;7.05;;;17.40;99.90;;;17.90;86.77;102374.31;5006185;28;20108;-67
2023/09/30 00:49:50;;;;;;;9.45;6.85;;;17.40;99.90;;;17.85;86.63;102370.78;4999169;28;20153;-67
2023/09/30 00:52:20;;;;;;;11.68;6.38;;;17.40;99.90;;;17.79;86.58;102384.22;5026829;28;20564;-66
2023/09/30 00:54:50;;;;;;;11.18;6.70;;;17.30;99.90;;;17.75;86.69;102395.88;5003247;28;20164;-67
2023/09/30 00:57:20;;;;;;;14.18;7.00;;;17.30;99.90;;;17.75;86.89;102398.56;5003729;28;20121;-66
2023/09/30 00:59:51;;;;;;;10.50;6.43;;;17.30;99.90;;;17.89;86.72;102412.69;5010829;28;20495;-67
2023/09/30 01:02:20;;;;;;;12.82;7.15;;;17.40;99.90;;;17.92;86.51;102410.84;5000283;28;20065;-67
2023/09/30 01:04:48;;;;;;;14.88;7.15;;;17.50;99.90;;;17.94;86.41;102414.41;5007026;28;20126;-67
2023/09/30 01:07:17;;;;;;;15.00;7.85;;;17.50;99.90;;;17.95;86.41;102402.81;5023487;28;20054;-67
2023/09/30 01:09:46;;;;;;;13.50;6.70;;;17.50;99.90;;;17.97;86.30;102397.44;5014287;28;20054;-69
2023/09/30 01:12:14;;;;;;;12.15;7.10;;;17.50;99.90;;;17.97;86.30;102398.31;5010196;28;20585;-66
2023/09/30 01:14:43;;;;;;;13.95;6.78;;;17.50;99.90;;;17.90;85.83;102390.38;5004809;28;20046;-66
2023/09/30 01:17:14;;;;;;;11.13;5.82;;;17.50;99.90;;;17.75;85.65;102393.22;5002517;28;20058;-67
2023/09/30 01:19:43;;;;;;;9.00;5.82;;;17.40;99.90;;;17.61;85.76;102385.31;5011509;28;20041;-67
2023/09/30 01:22:13;;;;;;;9.63;6.13;;;17.20;99.90;;;17.47;87.00;102376.47;5000895;28;20050;-69
2023/09/30 01:24:42;;;;;;;11.07;6.45;;;17.00;99.90;;;17.41;87.91;102389.88;5005019;28;20050;-68
2023/09/30 01:27:11;;;;;;;12.10;6.60;;;16.90;99.90;;;17.33;88.25;102391.72;5008707;28;20042;-69
2023/09/30 01:29:39;;;;;;;12.18;6.65;;;16.80;99.90;;;17.27;88.78;102383.75;4999484;28;20057;-68
2023/09/30 01:32:09;;;;;;;11.18;7.03;;;16.80;99.90;;;17.28;89.19;102392.69;5008354;28;20058;-69
2023/09/30 01:34:38;;;;;;;14.30;7.40;;;16.70;99.90;;;17.24;89.77;102402.50;5005996;28;20074;-69
2023/09/30 01:37:07;;;;;;;12.27;6.97;;;16.70;99.90;;;17.22;90.24;102396.28;4999905;28;20540;-68
2023/09/30 01:39:36;;;;;;;14.20;7.10;;;16.70;99.90;;;17.17;90.52;102398.97;5026471;28;20058;-69
2023/09/30 01:42:05;;;;;;;12.13;6.93;;;16.60;99.90;;;17.24;90.51;102397.16;5017544;28;20053;-68
2023/09/30 01:44:34;;;;;;;12.38;6.60;;;16.70;99.90;;;17.25;90.55;102382.00;5002769;28;20109;-69
2023/09/30 01:47:02;;;;;;;10.50;5.93;;;16.70;99.90;;;17.37;90.69;102395.25;5025143;28;20038;-69
2023/09/30 01:49:30;;;;;;;10.50;5.88;;;16.80;99.90;;;17.34;90.17;102397.97;4997766;28;20396;-68
2023/09/30 01:51:59;;;;;;;17.63;6.15;;;16.80;99.90;;;17.30;90.12;102393.56;5006826;28;20782;-69
2023/09/30 01:54:27;;;;;;;11.98;7.13;;;16.90;99.90;;;17.34;89.88;102396.19;5006254;28;20483;-69
2023/09/30 01:56:58;;;;;;;11.55;7.13;;;16.90;99.90;;;17.33;90.17;102396.19;4998272;28;20062;-68
2023/09/30 01:59:27;;;;;;;;;;;16.80;99.90;;;17.30;90.66;102404.25;4997500;28;20514;-68
2023/09/30 02:01:56;;;;;;;9.20;6.25;;;16.80;99.90;;;17.26;90.65;102407.84;5004253;28;19929;-68
2023/09/30 02:04:24;;;;;;;16.55;7.88;;;16.80;99.90;;;17.21;90.96;102399.84;5006757;28;20479;-68
2023/09/30 02:06:53;;;;;;;10.07;7.47;;;16.70;99.90;;;17.21;91.35;102402.50;4998347;28;20400;-69
2023/09/30 02:09:21;;;;;;;10.93;7.45;;;16.70;99.90;;;17.18;91.53;102397.19;5024637;28;20058;-69
2023/09/30 02:11:49;;;;;;;12.00;7.55;;;16.70;99.90;;;17.19;91.75;102390.94;5003386;28;20049;-68
2023/09/30 02:14:19;;;;;;;10.70;7.18;;;16.60;99.90;;;17.17;92.02;102377.59;5001435;28;20125;-69
2023/09/30 02:16:47;;;;;;;11.33;7.57;;;16.60;99.90;;;17.13;92.40;102381.19;5010025;28;20050;-68
2023/09/30 02:19:16;;;;;;;11.02;8.05;;;16.60;99.90;;;17.14;93.00;102380.28;4999795;28;20050;-69
2023/09/30 02:21:44;;;;;;;14.20;7.95;;;16.60;99.90;;;17.16;93.08;102388.31;5004645;28;20222;-68
2023/09/30 02:24:15;;;;;;;14.07;8.23;;;16.60;99.90;;;17.09;93.15;102384.78;5023128;28;20052;-69
2023/09/30 02:26:43;;;;;;;12.90;8.35;;;16.60;99.90;;;17.07;93.76;102375.00;4998006;28;20046;-68
2023/09/30 02:29:11;;;;;;;13.90;8.68;;;16.60;99.90;;;17.08;94.13;102374.09;5023546;28;20074;-69
2023/09/30 02:31:42;;;;;;;17.20;10.23;;;16.60;99.90;;;17.09;94.19;102368.72;5004169;28;20041;-68
2023/09/30 02:34:11;;;;;;;14.52;8.38;;;16.60;99.90;;;17.06;94.52;102376.78;4999529;28;20131;-69
2023/09/30 02:36:41;;;;;;;14.15;9.20;;;16.70;99.90;;;17.13;94.93;102372.25;5008199;28;20046;-69
2023/09/30 02:39:10;;;;;;;15.93;9.65;;;16.70;99.90;;;17.12;95.12;102374.06;5000045;28;20077;-68
2023/09/30 02:41:38;;;;;;;17.25;9.25;;;16.70;99.90;;;17.11;95.11;102384.78;5017287;28;20053;-68
2023/09/30 02:44:07;;;;;;;17.65;9.52;;;16.70;99.90;;;17.14;95.55;102393.66;5007548;28;20385;-68
2023/09/30 02:46:35;;;;;;;15.82;10.43;;;16.70;99.90;;;17.22;95.44;102384.69;4997038;28;20205;-69
2023/09/30 02:49:05;;;;;;;16.33;10.50;;;16.80;99.90;;;17.22;95.71;102382.00;5006851;28;20488;-69
2023/09/30 02:51:33;;;;;;;17.83;11.07;;;16.80;99.90;;;17.19;95.97;102380.25;5004861;28;20050;-68
2023/09/30 02:54:03;;;;;;;17.13;10.63;;;16.80;99.90;;;16.97;95.95;102347.44;4997299;28;20508;-69
2023/09/30 02:56:32;;;;;;;;;;;16.80;99.90;;;17.26;95.94;102389.13;4997223;28;20516;-69
2023/09/30 02:59:01;;;;;;;16.20;10.80;;;16.80;99.90;;;17.28;95.85;102380.19;5005289;28;20433;-69
2023/09/30 03:01:30;;;;;;;15.20;10.50;;;16.90;99.90;;;17.24;95.81;102378.44;5005319;28;20042;-68
2023/09/30 03:03:59;;;;;;;16.35;9.73;;;16.80;99.90;;;17.17;95.92;102369.56;4997209;28;20500;-69
2023/09/30 03:06:29;;;;;;;17.13;10.05;;;16.80;99.90;;;17.14;96.06;102366.94;5008658;28;20042;-69
2023/09/30 03:08:57;;;;;;;14.90;10.10;;;16.70;99.90;;;17.11;96.17;102360.72;5002018;28;20507;-69
2023/09/30 03:11:26;;;;;;;18.63;10.80;;;16.70;99.90;;;17.13;96.18;102367.81;5000593;28;20050;-69
2023/09/30 03:13:55;;;;;;;16.58;11.57;;;16.70;99.90;;;17.14;96.26;102371.38;5009058;28;20049;-68
2023/09/30 03:16:24;;;;;;;14.52;10.85;;;16.70;99.90;;;17.19;96.36;102374.03;4998358;28;20042;-69
2023/09/30 03:18:55;;;;;;;16.80;9.50;;;16.70;99.90;;;17.17;96.42;102377.59;5004057;28;20440;-68
2023/09/30 03:21:24;;;;;;;17.25;10.30;;;16.70;99.90;;;17.17;96.63;102386.53;5007059;28;20125;-68
2023/09/30 03:23:53;;;;;;;17.05;10.10;;;16.70;99.90;;;17.15;96.66;102374.03;4996932;28;20052;-69
2023/09/30 03:26:22;;;;;;;17.52;10.93;;;16.70;99.90;;;17.19;96.83;102374.88;5007425;28;20042;-68
2023/09/30 03:28:50;;;;;;;16.10;10.40;;;16.70;99.90;;;17.18;97.05;102362.44;5003686;28;20044;-68
2023/09/30 03:31:22;;;;;;;18.27;11.35;;;16.70;99.90;;;17.24;97.27;102367.75;4999141;28;20057;-68
2023/09/30 03:33:53;;;;;;;18.92;12.00;;;16.70;99.90;;;17.26;97.28;102367.72;5008926;28;20396;-69
2023/09/30 03:36:24;;;;;;;19.60;12.18;;;16.80;99.90;;;17.37;97.28;102385.47;5000295;28;20046;-69
2023/09/30 03:38:55;;;;;;;15.68;11.75;;;16.90;99.90;;;17.39;97.07;102380.09;5001538;28;20502;-69
2023/09/30 03:41:24;;;;;;;19.70;10.77;;;16.90;99.90;;;17.41;96.97;102375.63;5008959;28;20526;-69
2023/09/30 03:43:53;;;;;;;20.02;11.48;;;16.90;99.90;;;17.31;96.73;102376.59;5008926;28;20038;-69
2023/09/30 03:46:22;;;;;;;19.70;10.52;;;16.90;99.90;;;17.27;97.14;102373.06;5001234;28;20046;-68
2023/09/30 03:48:50;;;;;;;18.60;11.77;;;16.80;99.90;;;17.28;97.33;102379.28;5015914;28;20034;-69
2023/09/30 03:51:19;;;;;;;19.98;11.65;;;16.80;99.90;;;17.31;97.38;102374.81;5012920;28;20050;-68
2023/09/30 03:53:47;;;;;;;20.52;12.13;;;16.90;99.90;;;17.33;97.59;102375.69;5001628;28;20042;-69
2023/09/30 03:56:18;;;;;;;15.30;11.23;;;16.90;99.90;;;17.36;97.89;102373.00;5007434;28;20058;-69
2023/09/30 03:58:48;;;;;;;23.13;11.98;;;16.90;99.90;;;17.41;97.66;102376.50;5009152;28;20499;-69
2023/09/30 04:01:19;;;;;;;21.35;12.18;;;17.00;99.90;;;17.37;97.71;102373.88;5000262;28;20408;-69
2023/09/30 04:03:48;;;;;;;20.73;11.73;;;17.00;99.90;;;17.39;97.63;102369.38;5010586;28;20484;-68
2023/09/30 04:06:16;;;;;;;18.50;12.23;;;16.90;99.90;;;17.37;97.81;102377.44;5005092;28;20050;-69
2023/09/30 04:08:44;;;;;;;19.88;12.20;;;16.90;99.90;;;17.39;97.65;102372.06;5002341;28;20451;-69
2023/09/30 04:11:17;;;;;;;18.90;11.48;;;17.00;99.90;;;17.43;97.54;102371.16;5012720;28;20081;-68
2023/09/30 04:13:47;;;;;;;16.73;11.43;;;17.00;99.90;;;17.49;97.33;102380.06;5003258;28;20041;-69
2023/09/30 04:16:18;;;;;;;19.87;12.17;;;17.00;99.90;;;17.55;97.08;102384.47;5005178;28;20569;-69
2023/09/30 04:18:46;;;;;;;20.65;12.05;;;17.10;99.90;;;17.59;96.98;102383.53;5012172;28;20053;-69
2023/09/30 04:21:14;;;;;;;19.05;12.77;;;17.10;99.90;;;17.60;96.80;102387.97;4999849;28;20545;-69
2023/09/30 04:23:43;;;;;;;21.13;12.70;;;17.10;99.90;;;17.65;96.88;102386.16;5008857;28;20125;-68
2023/09/30 04:26:11;;;;;;;19.27;12.98;;;17.20;99.90;;;17.65;96.45;102388.84;5007907;28;20041;-69
2023/09/30 04:28:40;;;;;;;20.20;12.98;;;17.20;99.90;;;17.71;96.21;102397.66;5000575;28;20101;-68
2023/09/30 04:31:09;;;;;;;22.52;12.57;;;17.30;99.90;;;17.71;95.93;102386.97;5012497;28;20039;-69
2023/09/30 04:33:39;;;;;;;21.15;13.40;;;17.30;99.90;;;17.75;95.56;102394.06;5004353;28;20042;-69
2023/09/30 04:36:10;;;;;;;17.70;11.70;;;17.30;99.90;;;17.78;95.35;102395.84;5003616;28;20046;-68
2023/09/30 04:38:38;;;;;;;26.15;12.68;;;17.40;99.90;;;17.76;95.13;102389.59;5012199;28;20050;-69
2023/09/30 04:41:07;;;;;;;20.83;11.40;;;17.30;99.90;;;17.73;94.88;102398.53;5000762;28;20065;-69
2023/09/30 04:43:37;;;;;;;15.95;10.40;;;17.30;99.90;;;17.68;94.51;102402.16;5007416;28;20108;-69
2023/09/30 04:46:07;;;;;;;11.90;8.00;;;17.20;99.90;;;17.54;94.16;102396.03;5009380;28;20129;-69
2023/09/30 04:48:36;;;;;;;20.05;9.65;;;17.10;99.90;;;17.51;94.57;102394.31;4999845;28;20038;-69
2023/09/30 04:51:08;;;;;;;11.47;8.30;;;17.00;99.90;;;17.47;94.67;102388.94;5010218;28;20097;-69
2023/09/30 04:53:38;;;;;;;10.98;8.40;;;17.00;99.90;;;17.39;94.76;102385.44;5006112;28;20100;-68
2023/09/30 04:56:06;;;;;;;12.15;9.05;;;16.90;99.90;;;17.43;94.66;102395.22;5001728;28;20093;-69
2023/09/30 04:58:35;;;;;;;10.18;7.88;;;16.90;99.90;;;17.34;94.98;102387.28;5011636;28;20045;-69
2023/09/30 05:01:03;;;;;;;15.23;10.63;;;16.80;99.90;;;17.29;95.24;102386.41;5001722;28;20101;-68
2023/09/30 05:03:32;;;;;;;13.77;11.10;;;16.80;99.90;;;17.25;95.45;102388.22;5004678;28;20093;-69
2023/09/30 05:06:02;;;;;;;11.07;9.88;;;16.70;99.90;;;17.23;95.74;102400.72;5010048;28;20073;-69
2023/09/30 05:08:31;;;;;;;;;;;16.70;99.90;;;17.18;96.46;102394.53;4999166;28;20046;-69
2023/09/30 05:10:59;;;;;;;12.90;9.88;;;16.70;99.90;;;17.28;96.83;102400.69;5007608;28;19925;-69
2023/09/30 05:13:27;;;;;;;13.30;11.05;;;16.70;99.90;;;17.25;96.24;102382.00;5006583;28;20466;-69
2023/09/30 05:15:56;;;;;;;13.95;11.02;;;16.80;99.90;;;17.37;95.94;102395.25;4998306;28;20137;-68
2023/09/30 05:18:24;;;;;;;16.30;11.13;;;16.90;99.90;;;17.39;95.71;102398.81;5011741;28;20089;-69
2023/09/30 05:20:53;;;;;;;22.40;14.48;;;16.90;99.90;;;17.39;96.04;102397.03;5003005;28;20392;-69
2023/09/30 05:23:23;;;;;;;21.05;13.45;;;16.90;99.90;;;17.29;96.90;102392.66;5003533;28;20043;-69
2023/09/30 05:25:52;;;;;;;26.63;17.35;;;16.90;99.90;;;17.31;97.88;102385.50;5011044;28;20073;-69
2023/09/30 05:28:21;;;;;;;19.17;14.82;;;16.90;99.90;;;17.37;98.11;102390.81;4999759;28;20041;-69
2023/09/30 05:30:50;;;;;;;11.18;9.65;;;16.90;99.90;;;17.38;97.52;102400.59;5015007;28;20447;-69
2023/09/30 05:33:19;;;;;;;17.65;12.90;;;16.90;99.90;;;17.36;97.05;102402.44;5002823;28;20066;-69
2023/09/30 05:35:47;;;;;;;18.05;13.75;;;16.90;99.90;;;17.35;97.45;102403.31;5011081;28;20045;-69
2023/09/30 05:38:15;;;;;;;16.10;13.35;;;16.80;99.90;;;17.34;97.77;102403.31;4999701;28;20403;-69
2023/09/30 05:40:45;;;;;;;16.70;12.05;;;16.80;99.90;;;17.33;98.01;102401.53;5006411;28;20449;-69
2023/09/30 05:43:14;;;;;;;12.20;11.00;;;16.80;99.90;;;17.33;98.04;102404.22;5007777;28;20139;-69
2023/09/30 05:45:48;;;;;;;16.98;13.88;;;16.80;99.90;;;17.34;98.31;102406.00;4998640;28;20057;-69
2023/09/30 05:48:18;;;;;;;18.88;13.73;;;16.80;99.90;;;17.30;98.59;102414.94;5009046;28;20058;-69
2023/09/30 05:50:47;;;;;;;19.02;14.15;;;16.80;99.90;;;17.27;98.66;102412.28;5005528;28;20056;-69
2023/09/30 05:53:15;;;;;;;25.23;16.13;;;16.70;99.90;;;17.27;99.03;102417.63;5000964;28;20089;-69
2023/09/30 05:55:45;;;;;;;20.15;16.08;;;16.70;99.90;;;17.26;98.97;102410.50;5010850;28;20085;-68
2023/09/30 05:58:15;;;;;;;24.58;16.80;;;16.80;99.90;;;17.25;98.71;102411.44;5001603;28;20042;-69
2023/09/30 06:00:44;;;;;;;19.52;15.45;;;16.80;99.90;;;17.08;99.28;102388.34;5004235;28;20466;-68
2023/09/30 06:03:13;;;;;;;15.93;13.68;;;16.70;99.90;;;17.22;99.45;102415.00;5010246;28;20041;-69
2023/09/30 06:05:42;;;;;;;16.15;14.07;;;16.70;99.90;;;17.20;99.72;102413.22;4998678;28;20104;-69
2023/09/30 06:08:13;;;;;;;18.63;14.43;;;16.70;99.90;;;17.21;99.88;102407.88;5006037;28;20077;-69
2023/09/30 06:10:43;;;;;;;21.33;12.30;;;16.70;99.90;;;17.10;100.00;102397.25;5005732;28;20046;-69
2023/09/30 06:13:15;;;;;;;13.70;11.97;;;16.80;99.90;;;17.15;100.00;102406.13;4997147;28;20460;-69
2023/09/30 06:15:46;;;;;;;12.75;11.40;;;16.70;99.90;;;17.28;100.00;102423.00;5009014;28;20316;-69
2023/09/30 06:18:15;;;;;;;15.88;12.65;;;16.80;99.90;;;17.32;100.00;102413.16;5003209;28;20046;-68
2023/09/30 06:20:43;;;;;;;17.85;14.25;;;16.80;99.90;;;17.36;100.00;102431.84;5000934;28;20038;-69
2023/09/30 06:23:12;;;;;;;18.50;13.95;;;16.90;99.90;;;17.47;100.00;102439.78;5010334;28;20403;-69
2023/09/30 06:25:40;;;;;;;21.40;15.55;;;16.90;99.90;;;17.46;100.00;102440.69;4999999;28;20112;-69
2023/09/30 06:28:09;;;;;;;22.45;16.90;;;17.00;99.90;;;17.40;100.00;102430.03;5004299;28;20121;-69
2023/09/30 06:30:42;;;;;;;22.67;17.67;;;17.10;99.90;;;17.65;100.00;102451.25;5007726;28;20054;-69
2023/09/30 06:33:14;;;;;;;30.08;16.40;;;17.20;99.90;;;17.68;99.28;102451.25;4997425;28;20113;-69
2023/09/30 06:35:50;;;;;;;18.55;14.10;;;17.30;99.90;;;17.67;98.77;102453.94;5007117;28;20472;-70
2023/09/30 06:38:19;;;;;;;11.05;9.88;;;17.20;99.90;;;17.62;98.08;102458.44;5006060;28;20046;-68
2023/09/30 06:40:48;;;;;;;18.30;13.55;;;17.20;99.90;;;17.63;98.34;102457.53;4997557;28;20046;-68
2023/09/30 06:43:16;;;;;;;25.27;16.27;;;17.20;99.90;;;17.73;98.68;102452.09;5009496;28;20046;-67
2023/09/30 06:45:46;;;;;;;23.45;15.60;;;17.30;99.90;;;17.92;98.11;102463.53;5017175;28;20054;-69
2023/09/30 06:48:15;;;;;;;21.98;15.13;;;17.50;99.90;;;18.13;97.88;102468.69;5001392;28;20042;-69
2023/09/30 06:50:48;;;;;;;17.13;13.05;;;17.60;99.90;;;18.33;97.22;102469.34;5009787;28;20495;-67
2023/09/30 06:53:17;;;;;;;22.83;16.35;;;17.80;99.90;;;18.36;95.75;102473.81;4999541;28;20081;-68
2023/09/30 06:55:46;;;;;;;24.42;16.75;;;17.90;99.90;;;18.38;94.52;102455.91;5004051;28;20050;-67
2023/09/30 06:58:20;;;;;;;23.38;16.27;;;18.10;99.90;;;18.71;93.91;102477.00;5007379;28;20561;-74
2023/09/30 07:00:51;;;;;;;29.42;16.67;;;18.30;99.90;;;18.99;92.92;102478.41;4997237;28;20057;-71
2023/09/30 07:03:20;;;;;;;23.15;15.23;;;18.50;99.90;;;19.08;91.87;102477.41;5006294;28;20065;-70
2023/09/30 07:05:56;;;;;;;26.92;16.05;;;18.80;99.90;;;19.16;90.61;102497.88;5005615;28;20092;-72
2023/09/30 07:08:24;;;;;;;24.83;15.75;;;18.80;99.90;;;19.29;89.99;102495.91;4997232;28;20050;-70
2023/09/30 07:10:53;;;;;;;35.88;16.98;;;18.90;99.90;;;19.54;89.53;102500.03;5008083;28;20461;-71
2023/09/30 07:13:21;;;;;;;25.38;16.00;;;19.20;99.90;;;19.73;88.89;102502.41;5000989;28;20499;-71
2023/09/30 07:15:51;;;;;;;22.80;15.93;;;19.40;99.90;;;19.96;88.06;102503.81;4999883;28;20121;-69
2023/09/30 07:18:20;;;;;;;29.25;17.30;;;19.60;99.90;;;20.13;87.25;102507.97;5009143;28;20567;-69
2023/09/30 07:20:48;;;;;;;20.23;15.35;;;19.80;99.90;;;20.26;86.79;102509.59;4998579;28;20060;-68
2023/09/30 07:23:17;;;;;;;27.48;16.35;;;20.00;99.90;;;20.57;86.52;102520.66;5003378;28;20482;-68
2023/09/30 07:25:47;;;;;;;;;;;20.30;99.90;;;20.86;85.77;102506.63;5006773;28;20073;-69
2023/09/30 07:28:16;;;;;;;22.77;14.57;;;20.60;99.90;;;21.04;84.66;102517.06;4996882;28;20299;-69
2023/09/30 07:30:45;;;;;;;24.45;15.57;;;20.80;99.90;;;21.27;84.05;102520.13;5007324;28;20047;-68
2023/09/30 07:33:15;;;;;;;20.35;14.05;;;20.90;99.90;;;21.49;83.91;102510.63;5002955;28;20042;-69
2023/09/30 07:35:44;;;;;;;26.42;15.43;;;21.20;99.90;;;21.67;83.22;102512.91;4998384;28;20034;-68
2023/09/30 07:38:12;;;;;;;24.38;14.85;;;21.40;99.90;;;21.86;81.63;102516.94;5009385;28;20050;-69
2023/09/30 07:40:41;;;;;;;23.10;13.70;;;21.50;99.90;;;21.87;80.14;102513.34;4999327;28;20088;-70
2023/09/30 07:43:09;;;;;;;21.73;13.00;;;21.60;99.90;;;21.93;79.35;102513.16;5002497;28;20038;-69
2023/09/30 07:45:39;;;;;;;20.52;12.95;;;21.60;99.90;;;22.07;78.96;102520.91;5007942;28;20108;-74
2023/09/30 07:48:09;;;;;;;23.45;13.18;;;21.70;99.90;;;22.13;78.10;102518.06;4996483;28;20113;-69
2023/09/30 07:50:39;;;;;;;23.27;13.35;;;21.80;99.90;;;22.31;77.46;102505.00;5005524;28;20050;-72
2023/09/30 07:53:07;;;;;;;19.88;11.02;;;21.90;99.90;;;22.28;76.45;102502.34;5004240;28;20053;-68
2023/09/30 07:55:36;;;;;;;19.17;12.05;;;21.90;99.90;;;22.19;76.09;102494.53;4997070;28;20141;-68
2023/09/30 07:58:04;;;;;;;24.45;11.30;;;21.90;99.90;;;22.08;75.73;102496.63;5008981;28;20563;-67
2023/09/30 08:00:33;;;;;;;24.15;11.82;;;21.70;99.90;;;22.03;75.67;102500.34;5000507;28;20042;-66
2023/09/30 08:03:02;;;;;;;23.83;11.38;;;21.60;99.90;;;22.03;76.21;102505.72;5000804;28;20480;-70
2023/09/30 08:05:31;;;;;;;21.48;11.63;;;21.60;99.90;;;22.18;76.65;102487.34;5009068;28;20058;-72
2023/09/30 08:08:02;;;;;;;19.40;9.95;;;21.80;99.90;;;22.32;76.28;102495.97;5008998;28;20046;-73
2023/09/30 08:10:31;;;;;;;22.98;11.18;;;21.90;99.90;;;22.52;75.69;102497.22;5001217;28;20050;-73
2023/09/30 08:13:02;;;;;;;18.48;9.98;;;22.20;99.90;;;22.72;74.86;102505.69;4999394;28;20396;-73
2023/09/30 08:15:31;;;;;;;17.48;10.15;;;22.30;99.90;;;22.83;73.31;102508.94;5008429;28;20061;-73
2023/09/30 08:17:59;;;;;;;19.98;10.05;;;22.50;99.90;;;23.02;71.87;102513.78;4997231;28;20084;-73
2023/09/30 08:20:28;;;;;;;20.67;10.02;;;22.60;99.90;;;23.21;71.18;102504.19;5002975;28;20084;-73
2023/09/30 08:22:56;;;;;;;17.33;10.27;;;22.90;99.90;;;23.46;72.13;102498.94;5005850;28;20076;-74
2023/09/30 08:25:26;;;;;;;18.70;9.77;;;23.10;99.90;;;23.66;69.56;102496.47;4995945;28;20550;-73
2023/09/30 08:27:55;;;;;;;20.70;9.52;;;23.30;99.90;;;23.77;68.75;102497.00;5005571;28;20487;-73
2023/09/30 08:30:23;;;;;;;19.08;9.55;;;23.40;99.90;;;23.84;68.95;102501.28;5002353;28;20108;-72
2023/09/30 08:32:51;;;;;;;18.98;9.73;;;23.50;99.90;;;23.76;67.38;102502.47;4998155;28;20050;-73
2023/09/30 08:35:20;;;;;;;19.27;9.23;;;23.40;99.90;;;23.83;67.70;102506.72;5008974;28;20124;-74
2023/09/30 08:37:48;;;;;;;20.33;10.13;;;23.50;99.90;;;23.90;67.26;102514.59;5001777;28;20466;-72
2023/09/30 08:40:21;;;;;;;17.63;9.45;;;23.60;99.90;;;24.11;67.60;102518.44;5005808;28;20050;-73
2023/09/30 08:42:54;;;;;;;21.23;9.35;;;23.70;99.90;;;24.11;66.54;102502.19;5010804;28;20389;-73
2023/09/30 08:45:22;;;;;;;19.48;9.40;;;23.90;99.90;;;24.36;66.51;102531.97;5000006;28;20076;-73
2023/09/30 08:47:51;;;;;;;19.70;9.35;;;24.00;99.90;;;24.37;65.38;102541.88;5008281;28;20449;-74
2023/09/30 08:50:21;;;;;;;17.20;8.68;;;24.10;99.90;;;24.43;64.72;102541.66;5007551;28;20050;-73
2023/09/30 08:52:50;;;;;;;18.60;9.43;;;24.10;99.90;;;24.56;64.98;102548.41;4999361;28;20054;-73
2023/09/30 08:55:19;;;;;;;16.05;8.52;;;24.20;99.90;;;24.76;65.26;102551.31;4999819;28;20121;-72
2023/09/30 08:57:50;;;;;;;16.23;8.27;;;24.40;99.90;;;24.82;64.51;102564.63;5015378;28;20100;-73
2023/09/30 09:00:20;;;;;;;18.67;8.73;;;24.50;99.90;;;25.00;63.79;102577.50;5002781;28;20068;-73
2023/09/30 09:02:48;;;;;;;18.50;8.13;;;24.60;99.90;;;25.14;63.42;102586.00;5011768;28;20407;-73
2023/09/30 09:05:17;;;;;;;14.20;6.15;;;24.80;99.90;;;25.24;62.11;102598.22;5001248;28;20288;-73
2023/09/30 09:07:46;;;;;;;11.90;5.63;;;24.90;99.90;;;25.35;61.51;102590.59;5004883;28;20457;-73
2023/09/30 09:10:15;;;;;;;12.02;5.50;;;25.00;99.90;;;25.42;59.90;102584.03;5009419;28;20104;-74
2023/09/30 09:12:44;;;;;;;16.23;6.10;;;25.00;99.90;;;25.54;58.91;102590.81;4999170;28;20074;-74
2023/09/30 09:15:25;;;;;;;14.43;5.82;;;25.20;99.90;;;25.69;58.76;102596.50;5008990;28;20050;-74
2023/09/30 09:17:55;;;;;;;13.77;5.80;;;25.30;99.90;;;25.68;58.36;102599.28;5005155;28;20050;-73
2023/09/30 09:20:25;;;;;;;10.48;5.28;;;25.30;99.90;;;25.72;57.45;102600.94;4998603;28;20490;-74
2023/09/30 09:22:57;;;;;;;13.07;5.78;;;25.40;99.90;;;25.89;57.88;102598.41;4999210;28;20399;-73
2023/09/30 09:25:26;;;;;;;11.43;5.00;;;25.50;99.90;;;26.03;56.51;102590.63;5014574;28;20042;-74
2023/09/30 09:27:55;;;;;;;14.35;5.95;;;25.60;99.90;;;26.19;56.02;102599.91;5001947;28;20452;-74
2023/09/30 09:30:27;;;;;;;11.52;4.95;;;25.80;99.90;;;26.31;56.37;102585.81;5010403;28;20132;-73
2023/09/30 09:33:01;;;;;;;12.88;5.30;;;25.90;99.90;;;26.42;55.96;102588.94;5000215;28;20480;-75
2023/09/30 09:35:32;;;;;;;11.00;4.78;;;26.10;99.90;;;26.52;55.24;102595.75;5004406;28;20046;-75
2023/09/30 09:38:04;;;;;;;12.35;5.50;;;26.20;99.90;;;26.58;55.21;102600.03;5009622;28;20049;-76
2023/09/30 09:40:34;;;;;;;11.63;4.65;;;26.30;99.90;;;26.62;54.22;102604.38;4998458;28;20121;-75
2023/09/30 09:43:05;;;;;;;11.15;4.90;;;26.20;99.90;;;26.57;53.22;102596.47;5007750;28;20050;-75
2023/09/30 09:45:37;;;;;;;13.50;5.20;;;26.20;99.90;;;26.50;53.04;102605.78;5006907;28;20050;-76
2023/09/30 09:48:07;;;;;;;10.93;4.13;;;26.10;99.90;;;26.41;52.70;102602.59;5012539;28;20137;-74
2023/09/30 09:50:38;;;;;;;12.10;4.70;;;26.10;99.90;;;26.30;52.59;102597.63;5009439;28;20051;-72
2023/09/30 09:53:06;;;;;;;;;;;25.90;99.90;;;26.29;53.17;102595.84;5004478;28;20134;-73
2023/09/30 09:55:38;;;;;;;12.90;5.35;;;25.90;99.90;;;26.36;54.17;102599.22;5001068;28;19921;-74
2023/09/30 09:58:10;;;;;;;10.27;4.65;;;25.90;99.90;;;26.41;53.10;102597.16;5010613;28;20038;-74
2023/09/30 10:00:41;;;;;;;11.80;4.93;;;26.00;99.90;;;26.51;53.07;102588.56;5001072;28;20073;-73
2023/09/30 10:03:10;;;;;;;15.45;5.03;;;26.10;99.90;;;26.32;53.95;102578.56;5003703;28;20047;-73
2023/09/30 10:05:41;;;;;;;11.60;4.90;;;26.00;99.90;;;26.12;54.35;102564.94;5009347;28;20117;-74
2023/09/30 10:08:14;;;;;;;13.90;5.32;;;25.70;99.90;;;26.05;54.22;102561.59;4998069;28;20104;-71
2023/09/30 10:10:43;;;;;;;12.52;5.43;;;25.70;99.90;;;26.00;54.11;102568.16;5006151;28;20054;-72